Eugene, Oregon
Current Conditions -  °F | °C
As of 4:54 AM on Wednesday 26 Nov 2014 (Local Time) from KEUG Reporting Station
Clear Clear  
Wind Chill: 42°   Ceiling: Unl
Heat Index: 47°   Visibility: 10mi
Dew Point: 45°   Wind: 10mph
Humidity: 93%   Direction: 190°S
Pressure: 30.25"   Gusts: NA
Location:  44.05°N, 123.08°W
Report Text: KEUG 261254Z AUTO 19009KT 10SM CLR 08/07 A3025 RMK AO2 VIS 1 1/4 RNW 34 SLP244 T00830072
Loading
Personal Weather Stations






























Interactive Weather Map New forecast layout! Learn more

10-Day Weather Forecast

Advertisements
Track Severe Weather on mobile